sensor_id;sensor_type;location;lat;lon;timestamp;P1;durP1;ratioP1;P2;durP2;ratioP2
41305;SDS011;27051;50.376;19.152;2023-02-01T00:02:56;20.90;;;9.30;;
41305;SDS011;27051;50.376;19.152;2023-02-01T00:08:45;22.30;;;8.90;;
41305;SDS011;27051;50.376;19.152;2023-02-01T00:14:34;28.40;;;12.50;;
41305;SDS011;27051;50.376;19.152;2023-02-01T00:20:22;23.10;;;8.50;;
41305;SDS011;27051;50.376;19.152;2023-02-01T00:26:15;21.30;;;9.20;;
41305;SDS011;27051;50.376;19.152;2023-02-01T00:32:16;22.50;;;8.10;;
41305;SDS011;27051;50.376;19.152;2023-02-01T00:38:05;19.00;;;8.50;;
41305;SDS011;27051;50.376;19.152;2023-02-01T00:43:54;17.40;;;7.20;;
41305;SDS011;27051;50.376;19.152;2023-02-01T00:49:42;14.00;;;5.90;;
41305;SDS011;27051;50.376;19.152;2023-02-01T00:55:38;10.20;;;4.80;;
41305;SDS011;27051;50.376;19.152;2023-02-01T01:01:27;9.60;;;3.10;;
41305;SDS011;27051;50.376;19.152;2023-02-01T01:07:16;6.30;;;2.10;;
41305;SDS011;27051;50.376;19.152;2023-02-01T01:13:05;5.20;;;2.40;;
41305;SDS011;27051;50.376;19.152;2023-02-01T01:18:54;6.10;;;3.10;;
41305;SDS011;27051;50.376;19.152;2023-02-01T01:24:43;6.90;;;2.20;;
41305;SDS011;27051;50.376;19.152;2023-02-01T01:30:35;5.20;;;1.80;;
41305;SDS011;27051;50.376;19.152;2023-02-01T01:36:30;6.60;;;2.20;;
41305;SDS011;27051;50.376;19.152;2023-02-01T01:42:39;6.10;;;1.50;;
41305;SDS011;27051;50.376;19.152;2023-02-01T01:48:29;7.10;;;1.70;;
41305;SDS011;27051;50.376;19.152;2023-02-01T01:54:27;4.90;;;2.10;;
41305;SDS011;27051;50.376;19.152;2023-02-01T02:00:24;6.40;;;1.60;;
41305;SDS011;27051;50.376;19.152;2023-02-01T02:06:19;7.50;;;1.70;;
41305;SDS011;27051;50.376;19.152;2023-02-01T02:12:22;5.30;;;1.60;;
41305;SDS011;27051;50.376;19.152;2023-02-01T02:18:14;6.00;;;2.00;;
41305;SDS011;27051;50.376;19.152;2023-02-01T02:34:59;10.30;;;1.60;;
41305;SDS011;27051;50.376;19.152;2023-02-01T02:56:46;5.50;;;1.60;;
41305;SDS011;27051;50.376;19.152;2023-02-01T03:02:36;4.40;;;1.70;;
41305;SDS011;27051;50.376;19.152;2023-02-01T03:08:27;6.10;;;1.60;;
41305;SDS011;27051;50.376;19.152;2023-02-01T03:14:23;7.30;;;2.90;;
41305;SDS011;27051;50.376;19.152;2023-02-01T03:24:49;6.90;;;3.10;;
41305;SDS011;27051;50.376;19.152;2023-02-01T03:30:42;4.50;;;1.80;;
41305;SDS011;27051;50.376;19.152;2023-02-01T03:46:40;5.80;;;2.50;;
41305;SDS011;27051;50.376;19.152;2023-02-01T03:59:17;8.30;;;1.90;;
41305;SDS011;27051;50.376;19.152;2023-02-01T04:08:40;6.70;;;2.10;;
41305;SDS011;27051;50.376;19.152;2023-02-01T04:14:36;8.80;;;2.90;;
41305;SDS011;27051;50.376;19.152;2023-02-01T04:20:38;10.10;;;2.90;;
41305;SDS011;27051;50.376;19.152;2023-02-01T04:26:27;9.20;;;2.60;;
41305;SDS011;27051;50.376;19.152;2023-02-01T04:32:17;7.30;;;2.80;;
41305;SDS011;27051;50.376;19.152;2023-02-01T04:38:06;7.70;;;2.30;;
41305;SDS011;27051;50.376;19.152;2023-02-01T04:43:54;8.20;;;3.30;;
41305;SDS011;27051;50.376;19.152;2023-02-01T04:49:49;11.50;;;3.20;;
41305;SDS011;27051;50.376;19.152;2023-02-01T04:55:37;12.60;;;3.50;;
41305;SDS011;27051;50.376;19.152;2023-02-01T05:01:26;12.30;;;3.30;;
41305;SDS011;27051;50.376;19.152;2023-02-01T05:07:15;12.50;;;3.30;;
41305;SDS011;27051;50.376;19.152;2023-02-01T05:13:03;13.50;;;4.80;;
41305;SDS011;27051;50.376;19.152;2023-02-01T05:18:53;14.10;;;5.50;;
41305;SDS011;27051;50.376;19.152;2023-02-01T05:24:41;15.00;;;6.00;;
41305;SDS011;27051;50.376;19.152;2023-02-01T05:30:30;20.50;;;6.00;;
41305;SDS011;27051;50.376;19.152;2023-02-01T05:36:19;15.60;;;5.30;;
41305;SDS011;27051;50.376;19.152;2023-02-01T05:42:08;13.70;;;4.80;;
41305;SDS011;27051;50.376;19.152;2023-02-01T05:48:03;18.00;;;5.30;;
41305;SDS011;27051;50.376;19.152;2023-02-01T06:00:42;19.00;;;6.70;;
41305;SDS011;27051;50.376;19.152;2023-02-01T06:06:31;17.20;;;5.40;;
41305;SDS011;27051;50.376;19.152;2023-02-01T06:12:20;17.80;;;4.80;;
41305;SDS011;27051;50.376;19.152;2023-02-01T06:18:08;19.50;;;5.90;;
41305;SDS011;27051;50.376;19.152;2023-02-01T06:23:56;17.00;;;5.60;;
41305;SDS011;27051;50.376;19.152;2023-02-01T06:29:45;18.40;;;6.20;;
41305;SDS011;27051;50.376;19.152;2023-02-01T06:35:34;18.70;;;5.70;;
41305;SDS011;27051;50.376;19.152;2023-02-01T06:58:38;21.30;;;6.90;;
41305;SDS011;27051;50.376;19.152;2023-02-01T07:05:35;21.80;;;7.80;;
41305;SDS011;27051;50.376;19.152;2023-02-01T07:11:24;21.30;;;7.20;;
41305;SDS011;27051;50.376;19.152;2023-02-01T07:17:12;36.10;;;12.40;;
41305;SDS011;27051;50.376;19.152;2023-02-01T07:23:01;23.30;;;7.90;;
41305;SDS011;27051;50.376;19.152;2023-02-01T07:38:44;24.70;;;8.80;;
41305;SDS011;27051;50.376;19.152;2023-02-01T07:44:33;26.30;;;8.00;;
41305;SDS011;27051;50.376;19.152;2023-02-01T07:50:28;21.80;;;7.70;;
41305;SDS011;27051;50.376;19.152;2023-02-01T07:56:18;22.20;;;7.60;;
41305;SDS011;27051;50.376;19.152;2023-02-01T08:02:14;24.20;;;8.10;;
41305;SDS011;27051;50.376;19.152;2023-02-01T08:08:03;22.40;;;8.20;;
41305;SDS011;27051;50.376;19.152;2023-02-01T08:13:54;25.50;;;7.90;;
41305;SDS011;27051;50.376;19.152;2023-02-01T08:19:57;23.00;;;7.80;;
41305;SDS011;27051;50.376;19.152;2023-02-01T08:43:13;21.10;;;8.10;;
41305;SDS011;27051;50.376;19.152;2023-02-01T08:52:23;24.60;;;9.00;;
41305;SDS011;27051;50.376;19.152;2023-02-01T08:58:12;24.30;;;9.20;;
41305;SDS011;27051;50.376;19.152;2023-02-01T09:04:08;22.50;;;9.40;;
41305;SDS011;27051;50.376;19.152;2023-02-01T09:09:57;25.10;;;9.50;;
41305;SDS011;27051;50.376;19.152;2023-02-01T09:15:46;26.80;;;9.90;;
41305;SDS011;27051;50.376;19.152;2023-02-01T09:24:56;20.10;;;7.70;;
41305;SDS011;27051;50.376;19.152;2023-02-01T09:30:45;20.90;;;8.00;;
41305;SDS011;27051;50.376;19.152;2023-02-01T09:36:34;23.50;;;9.30;;
41305;SDS011;27051;50.376;19.152;2023-02-01T09:48:32;30.90;;;10.00;;
41305;SDS011;27051;50.376;19.152;2023-02-01T10:04:09;25.20;;;9.90;;
41305;SDS011;27051;50.376;19.152;2023-02-01T10:26:47;25.20;;;8.90;;
41305;SDS011;27051;50.376;19.152;2023-02-01T10:43:04;29.50;;;10.40;;
41305;SDS011;27051;50.376;19.152;2023-02-01T10:48:53;25.50;;;9.30;;
41305;SDS011;27051;50.376;19.152;2023-02-01T10:59:05;25.00;;;10.00;;
41305;SDS011;27051;50.376;19.152;2023-02-01T11:18:38;30.70;;;12.60;;
41305;SDS011;27051;50.376;19.152;2023-02-01T11:24:28;24.30;;;10.30;;
41305;SDS011;27051;50.376;19.152;2023-02-01T11:40:39;44.20;;;19.70;;
41305;SDS011;27051;50.376;19.152;2023-02-01T12:00:59;30.30;;;12.10;;
41305;SDS011;27051;50.376;19.152;2023-02-01T12:06:53;65.20;;;31.50;;
41305;SDS011;27051;50.376;19.152;2023-02-01T12:52:20;14.20;;;4.30;;
41305;SDS011;27051;50.376;19.152;2023-02-01T13:18:46;24.30;;;8.90;;
41305;SDS011;27051;50.376;19.152;2023-02-01T13:24:45;27.80;;;12.50;;
41305;SDS011;27051;50.376;19.152;2023-02-01T13:53:32;16.50;;;6.70;;
41305;SDS011;27051;50.376;19.152;2023-02-01T14:00:22;25.20;;;9.20;;
41305;SDS011;27051;50.376;19.152;2023-02-01T14:06:34;21.70;;;8.30;;
41305;SDS011;27051;50.376;19.152;2023-02-01T14:13:04;23.20;;;9.20;;
41305;SDS011;27051;50.376;19.152;2023-02-01T14:18:58;21.40;;;9.50;;
41305;SDS011;27051;50.376;19.152;2023-02-01T14:24:56;21.60;;;9.90;;
41305;SDS011;27051;50.376;19.152;2023-02-01T14:30:46;18.90;;;8.70;;
41305;SDS011;27051;50.376;19.152;2023-02-01T14:53:40;19.70;;;10.10;;
41305;SDS011;27051;50.376;19.152;2023-02-01T15:20:15;23.70;;;12.90;;
41305;SDS011;27051;50.376;19.152;2023-02-01T15:26:06;19.10;;;9.90;;
41305;SDS011;27051;50.376;19.152;2023-02-01T15:31:55;26.90;;;12.10;;
41305;SDS011;27051;50.376;19.152;2023-02-01T15:37:43;22.30;;;10.60;;
41305;SDS011;27051;50.376;19.152;2023-02-01T15:56:37;25.80;;;10.10;;
41305;SDS011;27051;50.376;19.152;2023-02-01T16:02:36;14.10;;;6.10;;
41305;SDS011;27051;50.376;19.152;2023-02-01T16:08:30;36.10;;;13.70;;
41305;SDS011;27051;50.376;19.152;2023-02-01T16:14:20;21.00;;;9.10;;
41305;SDS011;27051;50.376;19.152;2023-02-01T16:20:09;33.00;;;13.20;;
41305;SDS011;27051;50.376;19.152;2023-02-01T16:25:58;32.70;;;12.70;;
41305;SDS011;27051;50.376;19.152;2023-02-01T16:31:47;39.00;;;15.60;;
41305;SDS011;27051;50.376;19.152;2023-02-01T16:37:37;36.10;;;14.40;;
41305;SDS011;27051;50.376;19.152;2023-02-01T16:43:26;41.10;;;18.10;;
41305;SDS011;27051;50.376;19.152;2023-02-01T17:22:09;36.40;;;16.70;;
41305;SDS011;27051;50.376;19.152;2023-02-01T17:27:58;33.10;;;13.80;;
41305;SDS011;27051;50.376;19.152;2023-02-01T17:50:33;38.10;;;15.90;;
41305;SDS011;27051;50.376;19.152;2023-02-01T19:47:33;30.70;;;11.60;;
41305;SDS011;27051;50.376;19.152;2023-02-01T20:47:01;52.30;;;25.00;;
41305;SDS011;27051;50.376;19.152;2023-02-01T21:42:48;35.00;;;14.00;;
41305;SDS011;27051;50.376;19.152;2023-02-01T21:48:58;34.20;;;14.30;;
41305;SDS011;27051;50.376;19.152;2023-02-01T22:53:07;29.10;;;11.40;;
41305;SDS011;27051;50.376;19.152;2023-02-01T23:27:27;16.80;;;6.30;;
41305;SDS011;27051;50.376;19.152;2023-02-01T23:50:30;11.70;;;3.60;;
41305;SDS011;27051;50.376;19.152;2023-02-01T23:56:48;11.70;;;4.10;;
